sensor_id;sensor_type;location;lat;lon;timestamp;pressure;altitude;pressure_sealevel;temperature;humidity
61761;BME280;47664;51.660;-0.100;2023-01-27T00:00:18;102385.47;;;3.61;67.67
61761;BME280;47664;51.660;-0.100;2023-01-27T00:02:51;102387.70;;;3.90;66.04
61761;BME280;47664;51.660;-0.100;2023-01-27T00:05:23;102390.02;;;3.64;66.08
61761;BME280;47664;51.660;-0.100;2023-01-27T00:07:56;102395.42;;;3.75;65.96
61761;BME280;47664;51.660;-0.100;2023-01-27T00:10:28;102397.97;;;2.94;66.48
61761;BME280;47664;51.660;-0.100;2023-01-27T00:13:00;102399.89;;;3.69;66.12
61761;BME280;47664;51.660;-0.100;2023-01-27T00:15:33;102392.32;;;4.19;64.16
61761;BME280;47664;51.660;-0.100;2023-01-27T00:18:06;102393.32;;;4.24;63.33
61761;BME280;47664;51.660;-0.100;2023-01-27T00:20:38;102391.59;;;4.02;63.77
61761;BME280;47664;51.660;-0.100;2023-01-27T00:23:13;102394.03;;;4.42;62.89
61761;BME280;47664;51.660;-0.100;2023-01-27T00:25:45;102392.71;;;4.60;62.57
61761;BME280;47664;51.660;-0.100;2023-01-27T00:28:17;102392.21;;;4.65;62.04
61761;BME280;47664;51.660;-0.100;2023-01-27T00:30:49;102390.53;;;4.38;62.73
61761;BME280;47664;51.660;-0.100;2023-01-27T00:33:22;102386.15;;;4.34;62.57
61761;BME280;47664;51.660;-0.100;2023-01-27T00:35:56;102388.78;;;4.26;63.54
61761;BME280;47664;51.660;-0.100;2023-01-27T00:38:28;102391.04;;;3.51;63.41
61761;BME280;47664;51.660;-0.100;2023-01-27T00:41:01;102387.52;;;4.42;63.51
61761;BME280;47664;51.660;-0.100;2023-01-27T00:43:33;102380.01;;;4.07;63.13
61761;BME280;47664;51.660;-0.100;2023-01-27T00:46:05;102375.29;;;4.15;62.83
61761;BME280;47664;51.660;-0.100;2023-01-27T00:48:37;102372.85;;;3.87;63.46
61761;BME280;47664;51.660;-0.100;2023-01-27T00:51:09;102373.47;;;4.18;63.56
61761;BME280;47664;51.660;-0.100;2023-01-27T00:53:42;102382.49;;;4.15;63.22
61761;BME280;47664;51.660;-0.100;2023-01-27T00:56:15;102385.98;;;4.19;62.87
61761;BME280;47664;51.660;-0.100;2023-01-27T00:58:47;102372.31;;;3.75;63.28
61761;BME280;47664;51.660;-0.100;2023-01-27T01:01:20;102369.79;;;3.91;63.96
61761;BME280;47664;51.660;-0.100;2023-01-27T01:03:53;102368.45;;;3.48;64.07
61761;BME280;47664;51.660;-0.100;2023-01-27T01:06:26;102362.13;;;3.20;64.66
61761;BME280;47664;51.660;-0.100;2023-01-27T01:09:00;102358.13;;;3.59;64.62
61761;BME280;47664;51.660;-0.100;2023-01-27T01:11:32;102354.97;;;3.19;64.90
61761;BME280;47664;51.660;-0.100;2023-01-27T01:14:04;102356.41;;;3.63;65.44
61761;BME280;47664;51.660;-0.100;2023-01-27T01:16:36;102352.61;;;3.72;64.14
61761;BME280;47664;51.660;-0.100;2023-01-27T01:19:08;102351.86;;;4.14;63.74
61761;BME280;47664;51.660;-0.100;2023-01-27T01:21:41;102350.34;;;3.69;63.02
61761;BME280;47664;51.660;-0.100;2023-01-27T01:24:13;102352.31;;;3.84;63.93
61761;BME280;47664;51.660;-0.100;2023-01-27T01:26:45;102355.40;;;3.75;64.27
61761;BME280;47664;51.660;-0.100;2023-01-27T01:29:18;102351.91;;;3.71;64.21
61761;BME280;47664;51.660;-0.100;2023-01-27T01:31:50;102345.24;;;3.02;65.69
61761;BME280;47664;51.660;-0.100;2023-01-27T01:34:22;102342.24;;;3.12;66.79
61761;BME280;47664;51.660;-0.100;2023-01-27T01:36:54;102339.84;;;3.40;65.44
61761;BME280;47664;51.660;-0.100;2023-01-27T01:39:26;102342.00;;;2.62;66.92
61761;BME280;47664;51.660;-0.100;2023-01-27T01:41:58;102344.31;;;3.00;67.33
61761;BME280;47664;51.660;-0.100;2023-01-27T01:44:31;102343.28;;;2.67;66.15
61761;BME280;47664;51.660;-0.100;2023-01-27T01:47:03;102343.31;;;3.65;65.70
61761;BME280;47664;51.660;-0.100;2023-01-27T01:49:33;102342.75;;;3.99;64.55
61761;BME280;47664;51.660;-0.100;2023-01-27T01:52:06;102338.97;;;3.83;63.83
61761;BME280;47664;51.660;-0.100;2023-01-27T01:54:42;102336.03;;;3.55;63.93
61761;BME280;47664;51.660;-0.100;2023-01-27T01:57:16;102337.53;;;3.74;64.64
61761;BME280;47664;51.660;-0.100;2023-01-27T01:59:47;102339.86;;;3.22;65.79
61761;BME280;47664;51.660;-0.100;2023-01-27T02:02:22;102338.01;;;3.61;65.53
61761;BME280;47664;51.660;-0.100;2023-01-27T02:04:53;102332.98;;;3.53;66.05
61761;BME280;47664;51.660;-0.100;2023-01-27T02:07:27;102329.94;;;3.27;65.30
61761;BME280;47664;51.660;-0.100;2023-01-27T02:10:03;102329.34;;;3.54;65.39
61761;BME280;47664;51.660;-0.100;2023-01-27T02:12:35;102332.57;;;3.26;65.78
61761;BME280;47664;51.660;-0.100;2023-01-27T02:15:10;102329.05;;;3.15;66.03
61761;BME280;47664;51.660;-0.100;2023-01-27T02:17:42;102324.30;;;3.29;65.60
61761;BME280;47664;51.660;-0.100;2023-01-27T02:20:17;102316.72;;;4.03;64.39
61761;BME280;47664;51.660;-0.100;2023-01-27T02:22:51;102317.91;;;3.69;64.23
61761;BME280;47664;51.660;-0.100;2023-01-27T02:28:06;102317.41;;;4.04;64.12
61761;BME280;47664;51.660;-0.100;2023-01-27T02:30:39;102314.76;;;3.71;64.14
61761;BME280;47664;51.660;-0.100;2023-01-27T02:33:10;102302.63;;;3.86;64.01
61761;BME280;47664;51.660;-0.100;2023-01-27T02:35:53;102299.11;;;3.32;65.51
61761;BME280;47664;51.660;-0.100;2023-01-27T02:38:29;102300.17;;;2.83;65.56
61761;BME280;47664;51.660;-0.100;2023-01-27T02:41:00;102298.50;;;3.73;64.96
61761;BME280;47664;51.660;-0.100;2023-01-27T02:43:35;102302.35;;;3.73;65.41
61761;BME280;47664;51.660;-0.100;2023-01-27T02:46:07;102296.58;;;3.43;65.98
61761;BME280;47664;51.660;-0.100;2023-01-27T02:48:39;102300.37;;;3.43;66.18
61761;BME280;47664;51.660;-0.100;2023-01-27T02:51:12;102301.17;;;3.58;65.83
61761;BME280;47664;51.660;-0.100;2023-01-27T02:53:44;102304.42;;;3.55;65.87
61761;BME280;47664;51.660;-0.100;2023-01-27T02:56:17;102308.54;;;3.56;65.24
61761;BME280;47664;51.660;-0.100;2023-01-27T02:58:49;102302.96;;;4.02;64.05
61761;BME280;47664;51.660;-0.100;2023-01-27T03:01:22;102301.91;;;4.26;63.84
61761;BME280;47664;51.660;-0.100;2023-01-27T03:03:54;102296.40;;;4.05;63.58
61761;BME280;47664;51.660;-0.100;2023-01-27T03:06:26;102297.37;;;3.90;64.22
61761;BME280;47664;51.660;-0.100;2023-01-27T03:08:58;102304.12;;;4.04;64.26
61761;BME280;47664;51.660;-0.100;2023-01-27T03:11:30;102307.36;;;3.73;63.79
61761;BME280;47664;51.660;-0.100;2023-01-27T03:14:02;102307.90;;;3.93;64.43
61761;BME280;47664;51.660;-0.100;2023-01-27T03:16:35;102309.64;;;3.37;65.24
61761;BME280;47664;51.660;-0.100;2023-01-27T03:19:07;102314.76;;;3.80;64.73
61761;BME280;47664;51.660;-0.100;2023-01-27T03:21:40;102319.81;;;3.98;63.74
61761;BME280;47664;51.660;-0.100;2023-01-27T03:24:12;102322.67;;;3.96;63.72
61761;BME280;47664;51.660;-0.100;2023-01-27T03:26:44;102322.67;;;3.98;63.47
61761;BME280;47664;51.660;-0.100;2023-01-27T03:29:16;102321.47;;;4.40;63.14
61761;BME280;47664;51.660;-0.100;2023-01-27T03:31:49;102322.23;;;3.83;63.87
61761;BME280;47664;51.660;-0.100;2023-01-27T03:34:21;102324.30;;;4.21;63.79
61761;BME280;47664;51.660;-0.100;2023-01-27T03:36:52;102328.08;;;4.26;64.31
61761;BME280;47664;51.660;-0.100;2023-01-27T03:39:25;102325.32;;;4.08;64.14
61761;BME280;47664;51.660;-0.100;2023-01-27T03:41:57;102326.49;;;4.18;63.32
61761;BME280;47664;51.660;-0.100;2023-01-27T03:44:29;102329.48;;;3.80;63.15
61761;BME280;47664;51.660;-0.100;2023-01-27T03:47:02;102329.24;;;4.52;63.16
61761;BME280;47664;51.660;-0.100;2023-01-27T03:49:34;102325.96;;;4.29;63.22
61761;BME280;47664;51.660;-0.100;2023-01-27T03:52:05;102324.08;;;3.86;63.81
61761;BME280;47664;51.660;-0.100;2023-01-27T03:54:38;102320.19;;;4.18;63.83
61761;BME280;47664;51.660;-0.100;2023-01-27T03:57:10;102315.28;;;4.46;63.62
61761;BME280;47664;51.660;-0.100;2023-01-27T03:59:42;102315.73;;;4.33;63.46
61761;BME280;47664;51.660;-0.100;2023-01-27T04:02:14;102318.08;;;4.48;63.66
61761;BME280;47664;51.660;-0.100;2023-01-27T04:04:47;102320.80;;;4.79;63.47
61761;BME280;47664;51.660;-0.100;2023-01-27T04:07:19;102318.36;;;4.38;63.58
61761;BME280;47664;51.660;-0.100;2023-01-27T04:09:51;102317.83;;;4.40;63.63
61761;BME280;47664;51.660;-0.100;2023-01-27T04:12:24;102317.11;;;4.45;63.75
61761;BME280;47664;51.660;-0.100;2023-01-27T04:14:56;102312.53;;;4.88;63.35
61761;BME280;47664;51.660;-0.100;2023-01-27T04:17:28;102314.54;;;4.73;63.76
61761;BME280;47664;51.660;-0.100;2023-01-27T04:20:01;102319.05;;;4.51;63.75
61761;BME280;47664;51.660;-0.100;2023-01-27T04:22:33;102318.26;;;4.53;63.37
61761;BME280;47664;51.660;-0.100;2023-01-27T04:25:06;102312.85;;;4.36;63.94
61761;BME280;47664;51.660;-0.100;2023-01-27T04:27:38;102313.95;;;4.45;64.02
61761;BME280;47664;51.660;-0.100;2023-01-27T04:30:12;102316.64;;;4.39;64.36
61761;BME280;47664;51.660;-0.100;2023-01-27T04:32:44;102321.56;;;4.36;63.91
61761;BME280;47664;51.660;-0.100;2023-01-27T04:35:16;102319.31;;;4.07;65.40
61761;BME280;47664;51.660;-0.100;2023-01-27T04:37:48;102320.14;;;4.11;65.44
61761;BME280;47664;51.660;-0.100;2023-01-27T04:40:21;102324.25;;;4.21;65.10
61761;BME280;47664;51.660;-0.100;2023-01-27T04:42:53;102317.38;;;4.43;64.46
61761;BME280;47664;51.660;-0.100;2023-01-27T04:45:26;102308.80;;;4.08;65.10
61761;BME280;47664;51.660;-0.100;2023-01-27T04:47:58;102302.12;;;4.41;65.92
61761;BME280;47664;51.660;-0.100;2023-01-27T04:50:31;102302.77;;;3.84;65.68
61761;BME280;47664;51.660;-0.100;2023-01-27T04:53:03;102304.34;;;4.32;65.12
61761;BME280;47664;51.660;-0.100;2023-01-27T04:55:35;102305.20;;;4.38;64.64
61761;BME280;47664;51.660;-0.100;2023-01-27T04:58:08;102308.18;;;4.92;64.05
61761;BME280;47664;51.660;-0.100;2023-01-27T05:00:40;102306.32;;;4.54;64.28
61761;BME280;47664;51.660;-0.100;2023-01-27T05:03:13;102311.98;;;4.62;64.52
61761;BME280;47664;51.660;-0.100;2023-01-27T05:05:45;102307.86;;;3.96;64.57
61761;BME280;47664;51.660;-0.100;2023-01-27T05:08:17;102307.71;;;4.48;64.32
61761;BME280;47664;51.660;-0.100;2023-01-27T05:10:49;102310.09;;;4.31;64.41
61761;BME280;47664;51.660;-0.100;2023-01-27T05:13:21;102313.95;;;4.65;63.98
61761;BME280;47664;51.660;-0.100;2023-01-27T05:16:02;102315.23;;;4.50;63.56
61761;BME280;47664;51.660;-0.100;2023-01-27T05:18:34;102313.72;;;4.14;63.62
61761;BME280;47664;51.660;-0.100;2023-01-27T05:21:06;102314.78;;;3.98;65.14
61761;BME280;47664;51.660;-0.100;2023-01-27T05:23:39;102310.28;;;3.74;64.74
61761;BME280;47664;51.660;-0.100;2023-01-27T05:26:14;102316.19;;;4.39;64.14
61761;BME280;47664;51.660;-0.100;2023-01-27T05:28:48;102315.72;;;4.16;63.92
61761;BME280;47664;51.660;-0.100;2023-01-27T05:31:23;102317.40;;;4.66;63.28
61761;BME280;47664;51.660;-0.100;2023-01-27T05:33:57;102316.36;;;4.17;63.52
61761;BME280;47664;51.660;-0.100;2023-01-27T05:36:30;102323.80;;;3.98;63.47
61761;BME280;47664;51.660;-0.100;2023-01-27T05:39:02;102328.95;;;4.41;62.89
61761;BME280;47664;51.660;-0.100;2023-01-27T05:41:35;102330.58;;;4.05;62.82
61761;BME280;47664;51.660;-0.100;2023-01-27T05:44:08;102324.48;;;4.21;63.18
61761;BME280;47664;51.660;-0.100;2023-01-27T05:46:42;102328.45;;;4.28;63.29
61761;BME280;47664;51.660;-0.100;2023-01-27T05:49:14;102328.10;;;4.44;63.07
61761;BME280;47664;51.660;-0.100;2023-01-27T05:51:46;102326.94;;;4.39;62.89
61761;BME280;47664;51.660;-0.100;2023-01-27T05:54:19;102322.83;;;4.45;62.89
61761;BME280;47664;51.660;-0.100;2023-01-27T05:56:50;102323.99;;;4.33;62.40
61761;BME280;47664;51.660;-0.100;2023-01-27T05:59:23;102325.46;;;4.61;62.43
61761;BME280;47664;51.660;-0.100;2023-01-27T06:01:55;102322.25;;;4.32;62.60
61761;BME280;47664;51.660;-0.100;2023-01-27T06:04:28;102320.70;;;3.76;62.80
61761;BME280;47664;51.660;-0.100;2023-01-27T06:07:00;102319.42;;;4.30;62.36
61761;BME280;47664;51.660;-0.100;2023-01-27T06:09:32;102314.17;;;3.70;63.54
61761;BME280;47664;51.660;-0.100;2023-01-27T06:12:04;102315.71;;;4.01;63.65
61761;BME280;47664;51.660;-0.100;2023-01-27T06:14:36;102318.31;;;4.06;63.26
61761;BME280;47664;51.660;-0.100;2023-01-27T06:17:08;102325.55;;;4.27;63.01
61761;BME280;47664;51.660;-0.100;2023-01-27T06:19:40;102320.76;;;3.93;62.95
61761;BME280;47664;51.660;-0.100;2023-01-27T06:22:13;102319.25;;;3.95;63.58
61761;BME280;47664;51.660;-0.100;2023-01-27T06:24:45;102318.07;;;4.15;63.73
61761;BME280;47664;51.660;-0.100;2023-01-27T06:27:17;102317.31;;;4.14;63.90
61761;BME280;47664;51.660;-0.100;2023-01-27T06:29:49;102317.37;;;4.36;63.27
61761;BME280;47664;51.660;-0.100;2023-01-27T06:32:21;102315.99;;;4.14;63.21
61761;BME280;47664;51.660;-0.100;2023-01-27T06:34:53;102315.91;;;4.07;63.31
61761;BME280;47664;51.660;-0.100;2023-01-27T06:37:27;102314.17;;;4.01;63.63
61761;BME280;47664;51.660;-0.100;2023-01-27T06:39:59;102312.92;;;4.03;63.64
61761;BME280;47664;51.660;-0.100;2023-01-27T06:42:31;102313.92;;;3.44;63.74
61761;BME280;47664;51.660;-0.100;2023-01-27T06:45:03;102317.41;;;4.02;63.52
61761;BME280;47664;51.660;-0.100;2023-01-27T06:47:36;102315.93;;;4.19;63.18
61761;BME280;47664;51.660;-0.100;2023-01-27T06:50:09;102320.74;;;4.26;62.80
61761;BME280;47664;51.660;-0.100;2023-01-27T06:52:41;102317.98;;;4.02;62.62
61761;BME280;47664;51.660;-0.100;2023-01-27T06:55:13;102317.65;;;4.21;62.87
61761;BME280;47664;51.660;-0.100;2023-01-27T06:57:46;102322.34;;;4.35;62.23
61761;BME280;47664;51.660;-0.100;2023-01-27T07:00:19;102320.25;;;4.76;61.75
61761;BME280;47664;51.660;-0.100;2023-01-27T07:02:53;102320.38;;;4.92;61.30
61761;BME280;47664;51.660;-0.100;2023-01-27T07:05:26;102322.52;;;4.57;60.74
61761;BME280;47664;51.660;-0.100;2023-01-27T07:07:58;102325.83;;;4.96;60.41
61761;BME280;47664;51.660;-0.100;2023-01-27T07:10:31;102327.11;;;4.67;60.24
61761;BME280;47664;51.660;-0.100;2023-01-27T07:13:04;102322.74;;;4.96;59.74
61761;BME280;47664;51.660;-0.100;2023-01-27T07:15:37;102330.66;;;4.77;59.56
61761;BME280;47664;51.660;-0.100;2023-01-27T07:18:10;102329.36;;;5.41;59.22
61761;BME280;47664;51.660;-0.100;2023-01-27T07:20:43;102331.58;;;4.71;59.47
61761;BME280;47664;51.660;-0.100;2023-01-27T07:23:15;102334.73;;;4.81;59.66
61761;BME280;47664;51.660;-0.100;2023-01-27T07:25:47;102334.00;;;5.03;59.35
61761;BME280;47664;51.660;-0.100;2023-01-27T07:28:19;102336.75;;;4.82;59.49
61761;BME280;47664;51.660;-0.100;2023-01-27T07:30:51;102336.86;;;4.81;59.08
61761;BME280;47664;51.660;-0.100;2023-01-27T07:33:23;102340.20;;;4.84;59.63
61761;BME280;47664;51.660;-0.100;2023-01-27T07:35:55;102347.03;;;4.74;60.01
61761;BME280;47664;51.660;-0.100;2023-01-27T07:38:28;102354.35;;;4.45;59.52
61761;BME280;47664;51.660;-0.100;2023-01-27T07:41:02;102349.63;;;5.08;59.22
61761;BME280;47664;51.660;-0.100;2023-01-27T07:43:35;102349.55;;;4.75;59.67
61761;BME280;47664;51.660;-0.100;2023-01-27T07:46:07;102342.55;;;4.27;60.03
61761;BME280;47664;51.660;-0.100;2023-01-27T07:48:39;102346.44;;;4.01;60.59
61761;BME280;47664;51.660;-0.100;2023-01-27T07:51:10;102345.98;;;4.60;60.80
61761;BME280;47664;51.660;-0.100;2023-01-27T07:53:42;102349.31;;;4.37;61.01
61761;BME280;47664;51.660;-0.100;2023-01-27T07:56:15;102351.16;;;4.87;60.43
61761;BME280;47664;51.660;-0.100;2023-01-27T07:58:47;102353.48;;;5.11;60.06
61761;BME280;47664;51.660;-0.100;2023-01-27T08:01:19;102354.56;;;4.67;59.74
61761;BME280;47664;51.660;-0.100;2023-01-27T08:03:52;102349.70;;;4.90;59.65
61761;BME280;47664;51.660;-0.100;2023-01-27T08:06:24;102346.94;;;4.79;59.60
61761;BME280;47664;51.660;-0.100;2023-01-27T08:08:56;102346.88;;;5.14;59.59
61761;BME280;47664;51.660;-0.100;2023-01-27T08:11:29;102344.11;;;5.01;59.86
61761;BME280;47664;51.660;-0.100;2023-01-27T08:14:01;102352.21;;;4.75;60.08
61761;BME280;47664;51.660;-0.100;2023-01-27T08:16:34;102355.67;;;4.79;59.69
61761;BME280;47664;51.660;-0.100;2023-01-27T08:19:05;102357.08;;;4.93;60.04
61761;BME280;47664;51.660;-0.100;2023-01-27T08:21:38;102358.69;;;4.42;60.05
61761;BME280;47664;51.660;-0.100;2023-01-27T08:24:10;102366.81;;;4.73;60.27
61761;BME280;47664;51.660;-0.100;2023-01-27T08:26:42;102368.17;;;4.62;60.11
61761;BME280;47664;51.660;-0.100;2023-01-27T08:29:14;102373.14;;;4.69;60.20
61761;BME280;47664;51.660;-0.100;2023-01-27T08:31:46;102373.23;;;5.09;60.20
61761;BME280;47664;51.660;-0.100;2023-01-27T08:34:18;102374.98;;;5.12;59.93
61761;BME280;47664;51.660;-0.100;2023-01-27T08:36:51;102374.72;;;5.03;59.50
61761;BME280;47664;51.660;-0.100;2023-01-27T08:39:23;102374.69;;;5.07;59.42
61761;BME280;47664;51.660;-0.100;2023-01-27T08:41:55;102377.88;;;4.93;59.13
61761;BME280;47664;51.660;-0.100;2023-01-27T08:44:27;102379.05;;;4.31;59.28
61761;BME280;47664;51.660;-0.100;2023-01-27T08:46:59;102380.68;;;4.91;59.64
61761;BME280;47664;51.660;-0.100;2023-01-27T08:49:32;102384.16;;;4.37;59.69
61761;BME280;47664;51.660;-0.100;2023-01-27T08:52:04;102381.95;;;4.67;59.68
61761;BME280;47664;51.660;-0.100;2023-01-27T08:54:36;102384.03;;;4.60;59.39
61761;BME280;47664;51.660;-0.100;2023-01-27T08:57:09;102388.20;;;5.07;58.59
61761;BME280;47664;51.660;-0.100;2023-01-27T08:59:41;102392.03;;;4.86;58.66
61761;BME280;47664;51.660;-0.100;2023-01-27T09:02:15;102395.30;;;5.02;58.61
61761;BME280;47664;51.660;-0.100;2023-01-27T09:04:47;102397.88;;;5.18;58.37
61761;BME280;47664;51.660;-0.100;2023-01-27T09:07:19;102402.60;;;5.08;58.71
61761;BME280;47664;51.660;-0.100;2023-01-27T09:09:51;102400.64;;;5.05;58.98
61761;BME280;47664;51.660;-0.100;2023-01-27T09:12:23;102399.56;;;4.96;59.27
61761;BME280;47664;51.660;-0.100;2023-01-27T09:14:56;102401.06;;;5.20;59.41
61761;BME280;47664;51.660;-0.100;2023-01-27T09:17:29;102400.80;;;4.48;59.57
61761;BME280;47664;51.660;-0.100;2023-01-27T09:20:01;102399.07;;;4.98;59.46
61761;BME280;47664;51.660;-0.100;2023-01-27T09:22:33;102407.65;;;5.13;58.52
61761;BME280;47664;51.660;-0.100;2023-01-27T09:25:06;102407.25;;;4.96;58.80
61761;BME280;47664;51.660;-0.100;2023-01-27T09:27:38;102404.07;;;4.95;58.55
61761;BME280;47664;51.660;-0.100;2023-01-27T09:30:13;102413.29;;;5.16;58.64
61761;BME280;47664;51.660;-0.100;2023-01-27T09:32:45;102417.06;;;5.56;57.88
61761;BME280;47664;51.660;-0.100;2023-01-27T09:35:17;102411.21;;;5.31;57.66
61761;BME280;47664;51.660;-0.100;2023-01-27T09:37:52;102406.78;;;5.25;58.33
61761;BME280;47664;51.660;-0.100;2023-01-27T09:40:29;102411.71;;;5.26;58.33
61761;BME280;47664;51.660;-0.100;2023-01-27T09:43:47;102411.89;;;5.51;58.05
61761;BME280;47664;51.660;-0.100;2023-01-27T09:46:31;102405.71;;;5.55;57.44
61761;BME280;47664;51.660;-0.100;2023-01-27T09:49:20;102404.40;;;5.61;57.73
61761;BME280;47664;51.660;-0.100;2023-01-27T09:52:04;102404.85;;;5.52;57.42
61761;BME280;47664;51.660;-0.100;2023-01-27T09:54:52;102400.82;;;5.12;57.81
61761;BME280;47664;51.660;-0.100;2023-01-27T09:57:34;102394.23;;;5.01;58.31
61761;BME280;47664;51.660;-0.100;2023-01-27T10:00:16;102395.88;;;5.59;57.55
61761;BME280;47664;51.660;-0.100;2023-01-27T10:02:59;102401.17;;;5.66;57.03
61761;BME280;47664;51.660;-0.100;2023-01-27T10:05:45;102405.41;;;5.58;57.59
61761;BME280;47664;51.660;-0.100;2023-01-27T10:08:30;102402.61;;;5.64;56.83
61761;BME280;47664;51.660;-0.100;2023-01-27T10:11:11;102406.85;;;5.78;56.94
61761;BME280;47664;51.660;-0.100;2023-01-27T10:13:51;102408.45;;;5.91;56.54
61761;BME280;47664;51.660;-0.100;2023-01-27T10:16:35;102415.61;;;6.16;57.08
61761;BME280;47664;51.660;-0.100;2023-01-27T10:19:16;102416.02;;;6.10;56.67
61761;BME280;47664;51.660;-0.100;2023-01-27T10:21:53;102415.20;;;5.93;56.36
61761;BME280;47664;51.660;-0.100;2023-01-27T10:24:34;102420.73;;;5.46;56.65
61761;BME280;47664;51.660;-0.100;2023-01-27T10:27:11;102419.37;;;5.65;56.04
61761;BME280;47664;51.660;-0.100;2023-01-27T10:29:50;102413.43;;;5.66;56.04
61761;BME280;47664;51.660;-0.100;2023-01-27T10:32:32;102416.60;;;5.17;56.70
61761;BME280;47664;51.660;-0.100;2023-01-27T10:35:08;102417.20;;;5.88;55.74
61761;BME280;47664;51.660;-0.100;2023-01-27T10:37:46;102417.75;;;5.48;55.68
61761;BME280;47664;51.660;-0.100;2023-01-27T10:40:22;102418.77;;;5.96;56.24
61761;BME280;47664;51.660;-0.100;2023-01-27T10:43:00;102415.85;;;6.02;55.54
61761;BME280;47664;51.660;-0.100;2023-01-27T10:45:41;102413.03;;;5.34;55.48
61761;BME280;47664;51.660;-0.100;2023-01-27T10:48:24;102405.88;;;5.39;55.15
61761;BME280;47664;51.660;-0.100;2023-01-27T10:51:02;102397.47;;;5.60;55.79
61761;BME280;47664;51.660;-0.100;2023-01-27T10:53:37;102396.86;;;5.45;55.69
61761;BME280;47664;51.660;-0.100;2023-01-27T10:56:14;102392.76;;;5.80;55.65
61761;BME280;47664;51.660;-0.100;2023-01-27T10:58:49;102393.27;;;6.01;54.92
61761;BME280;47664;51.660;-0.100;2023-01-27T11:01:25;102393.69;;;6.07;54.76
61761;BME280;47664;51.660;-0.100;2023-01-27T11:04:03;102391.77;;;6.21;53.83
61761;BME280;47664;51.660;-0.100;2023-01-27T11:06:40;102389.39;;;6.07;54.18
61761;BME280;47664;51.660;-0.100;2023-01-27T11:09:15;102387.73;;;6.25;54.06
61761;BME280;47664;51.660;-0.100;2023-01-27T11:11:49;102393.43;;;6.08;54.06
61761;BME280;47664;51.660;-0.100;2023-01-27T11:14:24;102391.48;;;5.97;53.41
61761;BME280;47664;51.660;-0.100;2023-01-27T11:17:00;102390.35;;;6.28;53.49
61761;BME280;47664;51.660;-0.100;2023-01-27T11:19:36;102386.94;;;6.13;52.97
61761;BME280;47664;51.660;-0.100;2023-01-27T11:22:15;102385.41;;;6.78;52.02
61761;BME280;47664;51.660;-0.100;2023-01-27T11:24:55;102379.44;;;6.45;51.80
61761;BME280;47664;51.660;-0.100;2023-01-27T11:27:34;102387.75;;;5.90;51.60
61761;BME280;47664;51.660;-0.100;2023-01-27T11:30:10;102379.58;;;6.78;51.88
61761;BME280;47664;51.660;-0.100;2023-01-27T11:32:49;102378.92;;;6.74;50.86
61761;BME280;47664;51.660;-0.100;2023-01-27T11:35:26;102378.34;;;6.70;51.73
61761;BME280;47664;51.660;-0.100;2023-01-27T11:37:59;102376.07;;;6.80;51.09
61761;BME280;47664;51.660;-0.100;2023-01-27T11:40:33;102375.91;;;5.78;52.02
61761;BME280;47664;51.660;-0.100;2023-01-27T11:43:08;102368.51;;;6.61;52.48
61761;BME280;47664;51.660;-0.100;2023-01-27T11:45:45;102367.64;;;6.57;52.04
61761;BME280;47664;51.660;-0.100;2023-01-27T11:48:19;102365.53;;;6.70;52.57
61761;BME280;47664;51.660;-0.100;2023-01-27T11:50:51;102363.64;;;6.61;52.37
61761;BME280;47664;51.660;-0.100;2023-01-27T11:53:27;102364.07;;;6.85;52.49
61761;BME280;47664;51.660;-0.100;2023-01-27T11:56:04;102364.62;;;6.19;52.70
61761;BME280;47664;51.660;-0.100;2023-01-27T11:58:37;102361.79;;;6.19;53.49
61761;BME280;47664;51.660;-0.100;2023-01-27T12:01:15;102354.90;;;6.27;53.32
61761;BME280;47664;51.660;-0.100;2023-01-27T12:03:51;102359.03;;;5.88;53.66
61761;BME280;47664;51.660;-0.100;2023-01-27T12:06:30;102353.42;;;6.42;52.78
61761;BME280;47664;51.660;-0.100;2023-01-27T12:09:04;102353.42;;;6.81;53.02
61761;BME280;47664;51.660;-0.100;2023-01-27T12:11:36;102350.23;;;6.41;51.67
61761;BME280;47664;51.660;-0.100;2023-01-27T12:14:11;102351.56;;;6.78;52.18
61761;BME280;47664;51.660;-0.100;2023-01-27T12:16:43;102350.85;;;6.64;51.82
61761;BME280;47664;51.660;-0.100;2023-01-27T12:19:20;102352.81;;;6.84;52.07
61761;BME280;47664;51.660;-0.100;2023-01-27T12:21:56;102351.68;;;6.68;51.44
61761;BME280;47664;51.660;-0.100;2023-01-27T12:24:27;102347.74;;;6.29;52.22
61761;BME280;47664;51.660;-0.100;2023-01-27T12:27:00;102345.39;;;6.99;51.22
61761;BME280;47664;51.660;-0.100;2023-01-27T12:29:37;102346.62;;;6.47;50.63
61761;BME280;47664;51.660;-0.100;2023-01-27T12:32:15;102349.97;;;6.51;51.11
61761;BME280;47664;51.660;-0.100;2023-01-27T12:34:49;102344.19;;;6.58;49.46
61761;BME280;47664;51.660;-0.100;2023-01-27T12:37:22;102344.39;;;6.45;49.59
61761;BME280;47664;51.660;-0.100;2023-01-27T12:39:59;102342.27;;;6.34;49.66
61761;BME280;47664;51.660;-0.100;2023-01-27T12:42:34;102343.53;;;5.87;51.23
61761;BME280;47664;51.660;-0.100;2023-01-27T12:45:21;102344.81;;;6.85;50.29
61761;BME280;47664;51.660;-0.100;2023-01-27T12:48:23;102342.80;;;6.80;48.97
61761;BME280;47664;51.660;-0.100;2023-01-27T12:50:56;102340.58;;;6.51;49.96
61761;BME280;47664;51.660;-0.100;2023-01-27T12:53:34;102341.42;;;6.27;49.14
61761;BME280;47664;51.660;-0.100;2023-01-27T12:56:09;102344.83;;;7.01;49.03
61761;BME280;47664;51.660;-0.100;2023-01-27T12:58:44;102340.54;;;6.83;48.89
61761;BME280;47664;51.660;-0.100;2023-01-27T13:01:29;102341.38;;;7.19;48.86
61761;BME280;47664;51.660;-0.100;2023-01-27T13:04:04;102335.83;;;6.95;49.09
61761;BME280;47664;51.660;-0.100;2023-01-27T13:06:37;102330.18;;;6.52;49.80
61761;BME280;47664;51.660;-0.100;2023-01-27T13:09:18;102325.51;;;6.85;49.77
61761;BME280;47664;51.660;-0.100;2023-01-27T13:11:54;102323.61;;;6.96;48.80
61761;BME280;47664;51.660;-0.100;2023-01-27T13:14:29;102322.65;;;6.13;49.29
61761;BME280;47664;51.660;-0.100;2023-01-27T13:17:03;102320.33;;;6.14;50.40
61761;BME280;47664;51.660;-0.100;2023-01-27T13:19:37;102323.97;;;6.23;49.67
61761;BME280;47664;51.660;-0.100;2023-01-27T13:22:09;102322.90;;;6.85;49.90
61761;BME280;47664;51.660;-0.100;2023-01-27T13:24:49;102316.17;;;6.86;49.49
61761;BME280;47664;51.660;-0.100;2023-01-27T13:27:24;102321.96;;;7.00;49.15